createdAt,value
2022-10-19T00:01:15.617Z,16.83
2022-10-19T00:03:43.732Z,14.30
2022-10-19T00:06:14.912Z,18.83
2022-10-19T00:08:42.465Z,18.03
2022-10-19T00:11:09.638Z,16.60
2022-10-19T00:13:37.079Z,13.90
2022-10-19T00:16:12.463Z,16.30
2022-10-19T00:18:40.152Z,13.73
2022-10-19T00:21:08.754Z,17.80
2022-10-19T00:23:35.788Z,15.37
2022-10-19T00:26:02.673Z,13.77
2022-10-19T00:28:29.853Z,14.07
2022-10-19T00:30:57.130Z,13.53
2022-10-19T00:33:24.170Z,14.13
2022-10-19T00:35:52.931Z,13.97
2022-10-19T00:38:21.288Z,19.73
2022-10-19T00:40:49.149Z,14.20
2022-10-19T00:43:22.887Z,9.47
2022-10-19T00:45:50.571Z,11.67
2022-10-19T00:48:22.156Z,10.80
2022-10-19T00:50:50.925Z,11.90
2022-10-19T00:53:17.856Z,15.87
2022-10-19T00:55:45.293Z,12.50
2022-10-19T00:58:12.756Z,13.20
2022-10-19T01:00:39.870Z,16.73
2022-10-19T01:03:08.014Z,11.73
2022-10-19T01:05:35.651Z,13.10
2022-10-19T01:08:02.985Z,10.63
2022-10-19T01:11:03.479Z,11.67
2022-10-19T01:13:42.132Z,11.63
2022-10-19T01:16:27.327Z,8.50
2022-10-19T01:19:13.403Z,17.50
2022-10-19T01:21:56.095Z,10.20
2022-10-19T01:24:28.899Z,11.10
2022-10-19T01:27:33.402Z,12.17
2022-10-19T01:30:10.991Z,10.23
2022-10-19T01:33:01.515Z,15.43
2022-10-19T01:35:46.848Z,9.83
2022-10-19T01:38:19.556Z,10.73
2022-10-19T01:41:11.263Z,9.87
2022-10-19T01:43:44.255Z,13.07
2022-10-19T01:46:36.219Z,13.37
2022-10-19T01:49:13.786Z,11.13
2022-10-19T01:51:46.115Z,10.03
2022-10-19T01:54:15.485Z,13.37
2022-10-19T01:56:45.260Z,9.53
2022-10-19T01:59:13.995Z,11.63
2022-10-19T02:01:45.178Z,10.67
2022-10-19T02:04:15.167Z,12.13
2022-10-19T02:06:42.234Z,12.20
2022-10-19T02:09:09.143Z,9.70
2022-10-19T02:11:37.982Z,9.73
2022-10-19T02:14:10.141Z,9.47
2022-10-19T02:16:42.260Z,8.53
2022-10-19T02:19:11.452Z,9.30
2022-10-19T02:21:38.280Z,8.90
2022-10-19T02:24:05.238Z,6.13
2022-10-19T02:26:32.841Z,8.70
2022-10-19T02:28:59.872Z,8.70
2022-10-19T02:31:27.167Z,9.50
2022-10-19T02:33:54.585Z,10.37
2022-10-19T02:36:21.890Z,11.97
2022-10-19T02:38:48.807Z,13.37
2022-10-19T02:41:33.885Z,8.70
2022-10-19T02:44:15.043Z,10.87
2022-10-19T02:46:46.015Z,12.50
2022-10-19T02:49:14.475Z,9.73
2022-10-19T02:51:59.000Z,9.73
2022-10-19T02:54:26.986Z,7.77
2022-10-19T02:56:53.946Z,7.83
2022-10-19T02:59:20.771Z,9.30
2022-10-19T03:01:47.876Z,9.27
2022-10-19T03:04:14.990Z,7.20
2022-10-19T03:06:41.902Z,8.90
2022-10-19T03:09:09.120Z,7.90
2022-10-19T03:11:35.933Z,7.37
2022-10-19T03:14:02.779Z,9.63
2022-10-19T03:16:29.542Z,7.77
2022-10-19T03:18:56.544Z,8.57
2022-10-19T03:21:23.383Z,7.43
2022-10-19T03:23:50.178Z,6.20
2022-10-19T03:26:17.933Z,9.97
2022-10-19T03:28:44.859Z,6.53
2022-10-19T03:31:12.031Z,9.33
2022-10-19T03:33:38.947Z,8.63
2022-10-19T03:36:17.881Z,7.17
2022-10-19T03:38:44.871Z,5.13
2022-10-19T03:41:12.696Z,6.30
2022-10-19T03:43:41.203Z,6.43
2022-10-19T03:46:08.679Z,6.83
2022-10-19T03:48:35.822Z,5.93
2022-10-19T03:51:11.320Z,5.60
2022-10-19T03:53:38.931Z,6.57
2022-10-19T03:56:14.468Z,7.10
2022-10-19T03:58:43.179Z,5.93
2022-10-19T04:01:16.634Z,7.27
2022-10-19T04:03:43.810Z,10.17
2022-10-19T04:06:19.704Z,8.23
2022-10-19T04:08:49.873Z,5.73
2022-10-19T04:11:18.878Z,7.97
2022-10-19T04:13:49.496Z,7.07
2022-10-19T04:16:17.085Z,8.93
2022-10-19T04:18:43.922Z,7.57
2022-10-19T04:21:26.807Z,6.40
2022-10-19T04:24:00.009Z,6.63
2022-10-19T04:26:27.395Z,10.13
2022-10-19T04:28:54.381Z,3.83
2022-10-19T04:31:21.271Z,7.90
2022-10-19T04:33:48.058Z,7.80
2022-10-19T04:36:14.904Z,5.20
2022-10-19T04:38:41.868Z,5.07
2022-10-19T04:41:11.524Z,7.97
2022-10-19T04:43:38.859Z,6.20
2022-10-19T04:46:08.184Z,9.63
2022-10-19T04:48:36.812Z,8.80
2022-10-19T04:51:04.493Z,8.33
2022-10-19T04:53:32.550Z,5.93
2022-10-19T04:55:59.667Z,4.13
2022-10-19T04:58:27.403Z,9.10
2022-10-19T05:00:54.241Z,5.23
2022-10-19T05:03:21.087Z,6.10
2022-10-19T05:05:47.907Z,6.30
2022-10-19T05:08:14.719Z,6.10
2022-10-19T05:10:44.305Z,6.23
2022-10-19T05:13:14.556Z,3.67
2022-10-19T05:15:41.399Z,2.83
2022-10-19T05:18:08.181Z,3.00
2022-10-19T05:20:35.009Z,5.37
2022-10-19T05:23:06.217Z,5.97
2022-10-19T05:25:34.197Z,5.33
2022-10-19T05:28:00.968Z,4.63
2022-10-19T05:30:27.745Z,6.67
2022-10-19T05:32:54.546Z,3.20
2022-10-19T05:35:22.613Z,5.33
2022-10-19T05:37:55.198Z,5.37
2022-10-19T05:40:21.994Z,6.93
2022-10-19T05:42:48.747Z,7.50
2022-10-19T05:45:15.612Z,4.73
2022-10-19T05:47:42.384Z,5.40
2022-10-19T05:50:09.554Z,6.67
2022-10-19T05:52:36.330Z,7.10
2022-10-19T05:55:03.277Z,6.37
2022-10-19T05:57:32.523Z,4.33
2022-10-19T05:59:59.662Z,7.30
2022-10-19T06:02:26.482Z,4.00
2022-10-19T06:04:53.311Z,5.90
2022-10-19T06:07:20.133Z,5.07
2022-10-19T06:09:47.802Z,8.20
2022-10-19T06:12:16.218Z,6.63
2022-10-19T06:14:43.438Z,6.80
2022-10-19T06:17:10.749Z,5.47
2022-10-19T06:19:37.950Z,4.83
2022-10-19T06:22:04.712Z,4.33
2022-10-19T06:24:31.973Z,6.33
2022-10-19T06:26:58.791Z,8.57
2022-10-19T06:29:25.571Z,8.10
2022-10-19T06:31:54.190Z,6.50
2022-10-19T06:34:20.986Z,6.77
2022-10-19T06:36:47.844Z,5.30
2022-10-19T06:39:14.616Z,6.37
2022-10-19T06:41:41.445Z,7.53
2022-10-19T06:44:20.344Z,4.97
2022-10-19T06:46:47.166Z,4.57
2022-10-19T06:49:14.656Z,5.67
2022-10-19T06:51:41.809Z,4.90
2022-10-19T06:54:08.653Z,4.57
2022-10-19T06:56:36.069Z,6.07
2022-10-19T06:59:03.049Z,3.43
2022-10-19T07:01:29.861Z,3.77
2022-10-19T07:03:56.748Z,6.37
2022-10-19T07:06:23.965Z,7.00
2022-10-19T07:08:52.002Z,8.07
2022-10-19T07:11:20.918Z,4.60
2022-10-19T07:13:48.069Z,4.10
2022-10-19T07:16:20.654Z,6.30
2022-10-19T07:18:49.345Z,5.87
2022-10-19T07:21:17.545Z,6.63
2022-10-19T07:23:47.038Z,6.37
2022-10-19T07:26:15.714Z,8.00
2022-10-19T07:28:44.952Z,4.50
2022-10-19T07:31:14.150Z,3.83
2022-10-19T07:33:41.415Z,6.53
2022-10-19T07:36:10.070Z,5.67
2022-10-19T07:38:37.430Z,5.50
2022-10-19T07:41:10.146Z,6.47
2022-10-19T07:43:37.334Z,6.87
2022-10-19T07:46:10.653Z,5.73
2022-10-19T07:48:37.796Z,5.67
2022-10-19T07:51:06.972Z,6.37
2022-10-19T07:53:34.865Z,5.30
2022-10-19T07:56:10.275Z,7.77
2022-10-19T07:58:37.720Z,5.80
2022-10-19T08:01:06.576Z,6.67
2022-10-19T08:06:21.930Z,7.07
2022-10-19T08:08:49.272Z,5.77
2022-10-19T08:11:19.127Z,5.97
2022-10-19T08:13:46.574Z,2.83
2022-10-19T08:16:42.067Z,4.27
2022-10-19T08:19:14.238Z,4.57
2022-10-19T08:21:44.242Z,4.73
2022-10-19T08:24:13.190Z,4.10
2022-10-19T08:26:40.825Z,5.30
2022-10-19T08:29:16.330Z,8.17
2022-10-19T08:31:44.484Z,3.33
2022-10-19T08:34:12.567Z,3.77
2022-10-19T08:36:39.810Z,6.27
2022-10-19T08:39:08.423Z,6.07
2022-10-19T08:41:59.407Z,4.80
2022-10-19T08:44:38.183Z,2.57
2022-10-19T08:47:37.129Z,6.80
2022-10-19T08:50:18.176Z,5.23
2022-10-19T08:52:50.275Z,4.87
2022-10-19T08:55:23.225Z,4.53
2022-10-19T08:58:21.046Z,9.80
2022-10-19T09:00:53.685Z,7.37
2022-10-19T09:03:37.745Z,6.83
2022-10-19T09:06:34.807Z,5.23
2022-10-19T09:09:01.833Z,4.70
2022-10-19T09:11:34.131Z,6.17
2022-10-19T09:14:14.931Z,9.17
2022-10-19T09:16:42.713Z,4.23
2022-10-19T09:19:21.968Z,5.07
2022-10-19T09:21:56.563Z,4.30
2022-10-19T09:24:44.537Z,6.00
2022-10-19T09:27:20.897Z,8.03
2022-10-19T09:29:52.690Z,4.80
2022-10-19T09:32:26.536Z,7.60
2022-10-19T09:34:56.646Z,7.13
2022-10-19T09:37:26.553Z,6.97
2022-10-19T09:39:55.643Z,3.90
2022-10-19T09:42:34.704Z,3.13
2022-10-19T09:45:20.072Z,5.90
2022-10-19T09:47:48.844Z,4.63
2022-10-19T09:50:17.974Z,6.20
2022-10-19T09:52:47.105Z,6.93
2022-10-19T09:55:13.843Z,5.40
2022-10-19T09:57:45.471Z,6.00
2022-10-19T10:00:25.243Z,4.70
2022-10-19T10:02:54.660Z,4.20
2022-10-19T10:05:32.900Z,5.23
2022-10-19T10:07:59.730Z,3.90
2022-10-19T10:10:35.513Z,2.50
2022-10-19T10:13:03.021Z,3.93
2022-10-19T10:15:42.239Z,5.00
2022-10-19T10:18:15.451Z,3.93
2022-10-19T10:20:59.477Z,5.90
2022-10-19T10:23:33.872Z,6.90
2022-10-19T10:26:01.383Z,6.67
2022-10-19T10:28:29.985Z,3.83
2022-10-19T10:31:06.092Z,4.63
2022-10-19T10:33:50.886Z,4.97
2022-10-19T10:36:18.187Z,4.50
2022-10-19T10:38:52.912Z,2.80
2022-10-19T10:41:23.407Z,3.43
2022-10-19T10:43:59.674Z,3.47
2022-10-19T10:46:35.557Z,3.37
2022-10-19T10:49:05.855Z,7.10
2022-10-19T10:51:39.089Z,4.43
2022-10-19T10:54:26.542Z,4.47
2022-10-19T10:57:17.402Z,3.33
2022-10-19T10:59:50.439Z,3.40
2022-10-19T11:02:37.482Z,3.47
2022-10-19T11:05:19.046Z,3.13
2022-10-19T11:07:48.291Z,3.17
2022-10-19T11:10:29.964Z,5.90
2022-10-19T11:13:05.655Z,2.53
2022-10-19T11:15:39.392Z,3.43
2022-10-19T11:18:26.776Z,2.03
2022-10-19T11:21:09.516Z,5.87
2022-10-19T11:23:40.400Z,2.73
2022-10-19T11:26:29.423Z,2.87
2022-10-19T11:29:14.518Z,4.37
2022-10-19T11:31:50.431Z,3.10
2022-10-19T11:34:23.624Z,3.23
2022-10-19T11:37:11.293Z,2.43
2022-10-19T11:39:46.857Z,2.17
2022-10-19T11:42:22.730Z,1.17
2022-10-19T11:45:18.570Z,2.53
2022-10-19T11:48:00.917Z,1.00
2022-10-19T11:50:54.140Z,1.60
2022-10-19T11:53:34.022Z,2.30
2022-10-19T11:56:19.295Z,2.47
2022-10-19T11:59:05.521Z,2.03
2022-10-19T12:01:56.745Z,5.07
2022-10-19T12:04:46.442Z,4.70
2022-10-19T12:07:39.232Z,4.03
2022-10-19T12:10:27.915Z,2.63
2022-10-19T12:13:00.890Z,3.37
2022-10-19T12:15:38.058Z,1.73
2022-10-19T12:18:31.071Z,1.47
2022-10-19T12:21:02.107Z,2.90
2022-10-19T12:23:39.934Z,3.40
2022-10-19T12:26:11.203Z,2.70
2022-10-19T12:28:43.146Z,2.17
2022-10-19T12:31:11.862Z,1.50
2022-10-19T12:33:57.558Z,2.83
2022-10-19T12:36:50.707Z,3.57
2022-10-19T12:39:35.543Z,1.27
2022-10-19T12:42:39.422Z,2.83
2022-10-19T12:45:21.355Z,2.20
2022-10-19T12:48:13.041Z,2.50
2022-10-19T12:50:48.966Z,1.53
2022-10-19T12:56:16.206Z,3.70
2022-10-19T12:58:47.586Z,2.70
2022-10-19T13:01:23.154Z,2.70
2022-10-19T13:04:13.108Z,2.73
2022-10-19T13:06:51.231Z,1.90
2022-10-19T13:09:26.334Z,2.53
2022-10-19T13:12:25.671Z,2.33
2022-10-19T13:14:59.571Z,5.77
2022-10-19T13:17:44.058Z,3.67
2022-10-19T13:20:13.982Z,3.30
2022-10-19T13:22:46.547Z,3.40
2022-10-19T13:25:21.549Z,2.57
2022-10-19T13:27:49.574Z,3.33
2022-10-19T13:30:44.077Z,2.67
2022-10-19T13:33:25.929Z,3.67
2022-10-19T13:36:02.487Z,1.77
2022-10-19T13:39:03.328Z,1.60
2022-10-19T13:41:39.171Z,4.33
2022-10-19T13:44:16.058Z,2.43
2022-10-19T13:47:04.482Z,2.50
2022-10-19T13:49:48.977Z,2.60
2022-10-19T13:52:27.745Z,3.00
2022-10-19T13:55:35.707Z,2.87
2022-10-19T13:58:54.157Z,2.83
2022-10-19T14:01:49.408Z,6.90
2022-10-19T14:04:45.083Z,1.80
2022-10-19T14:07:17.429Z,2.87
2022-10-19T14:09:44.149Z,1.53
2022-10-19T14:12:28.938Z,1.70
2022-10-19T14:14:55.818Z,1.90
2022-10-19T14:17:29.984Z,2.03
2022-10-19T14:19:59.129Z,1.70
2022-10-19T14:22:40.607Z,2.50
2022-10-19T14:25:18.038Z,1.33
2022-10-19T14:27:46.966Z,2.03
2022-10-19T14:30:29.220Z,1.70
2022-10-19T14:32:59.422Z,1.63
2022-10-19T14:35:33.145Z,3.67
2022-10-19T14:38:00.582Z,2.80
2022-10-19T14:40:30.437Z,1.00
2022-10-19T14:42:59.274Z,2.60
2022-10-19T14:45:29.194Z,2.63
2022-10-19T14:48:02.976Z,1.30
2022-10-19T14:50:44.928Z,1.63
2022-10-19T14:53:32.996Z,3.17
2022-10-19T14:56:06.442Z,2.47
2022-10-19T14:58:46.670Z,3.43
2022-10-19T15:01:15.919Z,2.33
2022-10-19T15:03:44.786Z,3.90
2022-10-19T15:06:28.239Z,1.37
2022-10-19T15:09:01.923Z,1.47
2022-10-19T15:11:38.051Z,3.03
2022-10-19T15:14:09.228Z,2.90
2022-10-19T15:16:51.197Z,1.97
2022-10-19T15:19:41.089Z,3.70
2022-10-19T15:22:20.890Z,4.03
2022-10-19T15:25:02.745Z,3.47
2022-10-19T15:27:31.550Z,5.30
2022-10-19T15:30:01.523Z,2.43
2022-10-19T15:32:37.449Z,2.77
2022-10-19T15:35:32.100Z,3.87
2022-10-19T15:38:19.055Z,3.73
2022-10-19T15:40:46.870Z,2.47
2022-10-19T15:43:32.936Z,3.07
2022-10-19T15:46:13.316Z,2.57
2022-10-19T15:48:50.015Z,2.17
2022-10-19T15:51:29.004Z,8.23
2022-10-19T15:54:00.810Z,6.60
2022-10-19T15:56:29.847Z,4.40
2022-10-19T15:58:59.096Z,2.80
2022-10-19T16:01:28.697Z,4.30
2022-10-19T16:03:55.791Z,4.77
2022-10-19T16:06:24.981Z,5.40
2022-10-19T16:08:53.899Z,6.67
2022-10-19T16:11:23.088Z,5.43
2022-10-19T16:13:50.507Z,3.80
2022-10-19T16:16:24.390Z,5.53
2022-10-19T16:18:52.124Z,5.67
2022-10-19T16:21:21.007Z,6.27
2022-10-19T16:23:47.853Z,5.03
2022-10-19T16:26:16.479Z,2.97
2022-10-19T16:28:43.648Z,4.70
2022-10-19T16:31:11.666Z,4.80
2022-10-19T16:33:38.404Z,8.03
2022-10-19T16:36:07.488Z,6.03
2022-10-19T16:38:35.005Z,2.53
2022-10-19T16:41:10.242Z,4.20
2022-10-19T16:43:37.943Z,5.50
2022-10-19T16:46:05.835Z,4.90
2022-10-19T16:48:32.802Z,5.00
2022-10-19T16:51:11.212Z,5.43
2022-10-19T16:53:38.721Z,6.97
2022-10-19T16:56:10.432Z,6.07
2022-10-19T16:58:37.676Z,9.67
2022-10-19T17:01:16.561Z,4.30
2022-10-19T17:03:47.775Z,3.47
2022-10-19T17:06:15.500Z,5.13
2022-10-19T17:09:23.349Z,4.80
2022-10-19T17:11:34.754Z,4.97
2022-10-19T17:14:04.667Z,5.03
2022-10-19T17:16:33.119Z,4.90
2022-10-19T17:19:01.466Z,3.83
2022-10-19T17:21:30.937Z,4.40
2022-10-19T17:24:00.390Z,8.37
2022-10-19T17:26:33.986Z,3.63
2022-10-19T17:29:01.709Z,7.33
2022-10-19T17:31:29.163Z,9.03
2022-10-19T17:33:56.277Z,9.57
2022-10-19T17:36:26.216Z,7.17
2022-10-19T17:38:54.713Z,18.50
2022-10-19T17:41:22.287Z,12.20
2022-10-19T17:43:53.158Z,7.00
2022-10-19T17:46:26.039Z,7.87
2022-10-19T17:48:53.339Z,5.23
2022-10-19T17:51:28.827Z,8.63
2022-10-19T17:53:58.606Z,9.23
2022-10-19T17:56:26.229Z,9.17
2022-10-19T17:58:53.598Z,47.43
2022-10-19T18:01:22.601Z,50.20
2022-10-19T18:03:50.285Z,45.70
2022-10-19T18:06:22.957Z,24.93
2022-10-19T18:08:52.565Z,13.77
2022-10-19T18:11:25.152Z,11.57
2022-10-19T18:13:54.287Z,6.77
2022-10-19T18:16:27.952Z,8.47
2022-10-19T18:18:57.040Z,6.43
2022-10-19T18:21:27.005Z,9.17
2022-10-19T18:23:56.505Z,7.07
2022-10-19T18:26:25.949Z,10.23
2022-10-19T18:28:53.943Z,8.20
2022-10-19T18:31:31.813Z,7.40
2022-10-19T18:34:01.345Z,8.03
2022-10-19T18:36:28.992Z,9.23
2022-10-19T18:38:59.890Z,12.37
2022-10-19T18:41:27.157Z,10.13
2022-10-19T18:44:01.910Z,10.27
2022-10-19T18:46:29.076Z,6.63
2022-10-19T18:48:56.158Z,6.83
2022-10-19T18:51:23.752Z,7.80
2022-10-19T18:53:50.813Z,8.97
2022-10-19T18:56:20.159Z,9.80
2022-10-19T18:58:47.675Z,9.03
2022-10-19T19:01:26.764Z,8.53
2022-10-19T19:03:56.415Z,8.80
2022-10-19T19:06:25.079Z,7.33
2022-10-19T19:08:57.919Z,5.90
2022-10-19T19:11:26.968Z,5.93
2022-10-19T19:13:59.564Z,8.43
2022-10-19T19:16:32.259Z,6.13
2022-10-19T19:18:59.070Z,6.47
2022-10-19T19:21:28.179Z,5.47
2022-10-19T19:23:57.823Z,7.43
2022-10-19T19:26:27.078Z,8.90
2022-10-19T19:28:53.927Z,6.00
2022-10-19T19:31:20.753Z,7.33
2022-10-19T19:33:48.181Z,6.00
2022-10-19T19:36:16.730Z,6.23
2022-10-19T19:38:43.986Z,4.10
2022-10-19T19:41:13.154Z,6.70
2022-10-19T19:43:40.324Z,8.50
2022-10-19T19:46:12.356Z,5.40
2022-10-19T19:48:40.804Z,6.60
2022-10-19T19:51:09.675Z,8.20
2022-10-19T19:53:37.523Z,6.43
2022-10-19T19:56:06.661Z,7.77
2022-10-19T19:58:33.839Z,6.80
2022-10-19T20:01:07.374Z,9.20
2022-10-19T20:03:34.854Z,5.60
2022-10-19T20:06:03.298Z,7.67
2022-10-19T20:08:30.643Z,4.83
2022-10-19T20:11:05.346Z,3.57
2022-10-19T20:13:32.357Z,4.63
2022-10-19T20:16:06.192Z,6.37
2022-10-19T20:18:33.313Z,5.53
2022-10-19T20:21:05.228Z,5.17
2022-10-19T20:23:32.618Z,4.23
2022-10-19T20:25:59.351Z,7.80
2022-10-19T20:28:27.856Z,5.00
2022-10-19T20:31:02.461Z,4.60
2022-10-19T20:33:31.409Z,4.60
2022-10-19T20:36:09.747Z,4.60
2022-10-19T20:38:38.541Z,6.43
2022-10-19T20:41:08.202Z,6.70
2022-10-19T20:43:38.361Z,7.40
2022-10-19T20:46:14.008Z,7.10
2022-10-19T20:48:40.935Z,5.27
2022-10-19T20:51:15.483Z,6.33
2022-10-19T20:53:46.227Z,6.30
2022-10-19T20:56:15.790Z,4.63
2022-10-19T20:58:43.730Z,6.73
2022-10-19T21:01:16.659Z,6.07
2022-10-19T21:03:54.982Z,9.40
2022-10-19T21:06:23.949Z,7.73
2022-10-19T21:08:51.308Z,5.30
2022-10-19T21:11:29.924Z,7.83
2022-10-19T21:13:58.981Z,5.47
2022-10-19T21:16:34.012Z,6.40
2022-10-19T21:19:02.351Z,5.33
2022-10-19T21:21:34.374Z,8.10
2022-10-19T21:24:04.868Z,6.67
2022-10-19T21:26:33.161Z,8.53
2022-10-19T21:28:59.996Z,6.13
2022-10-19T21:31:27.171Z,5.90
2022-10-19T21:33:54.120Z,6.77
2022-10-19T21:36:22.754Z,8.87
2022-10-19T21:38:49.501Z,6.57
2022-10-19T21:41:22.258Z,7.57
2022-10-19T21:43:52.301Z,7.10
2022-10-19T21:46:21.149Z,6.47
2022-10-19T21:48:48.788Z,5.73
2022-10-19T21:51:37.263Z,5.23
2022-10-19T21:54:05.840Z,6.43
2022-10-19T21:56:33.654Z,6.10
2022-10-19T21:59:00.604Z,6.80
2022-10-19T22:01:29.633Z,9.60
2022-10-19T22:03:58.027Z,7.47
2022-10-19T22:06:26.214Z,6.50
2022-10-19T22:08:53.168Z,7.77
2022-10-19T22:11:20.447Z,6.10
2022-10-19T22:13:47.593Z,6.97
2022-10-19T22:16:17.345Z,7.83
2022-10-19T22:18:44.380Z,6.23
2022-10-19T22:21:13.659Z,6.17
2022-10-19T22:23:41.382Z,5.43
2022-10-19T22:26:16.411Z,6.43
2022-10-19T22:28:43.619Z,6.90
2022-10-19T22:31:11.596Z,6.03
2022-10-19T22:33:38.504Z,5.10
2022-10-19T22:36:07.541Z,6.70
2022-10-19T22:38:35.057Z,5.50
2022-10-19T22:41:01.904Z,5.53
2022-10-19T22:43:28.762Z,6.80
2022-10-19T22:45:55.557Z,6.33
2022-10-19T22:48:22.420Z,6.07
2022-10-19T22:50:53.080Z,5.03
2022-10-19T22:53:20.714Z,6.83
2022-10-19T22:55:47.497Z,6.23
2022-10-19T22:58:14.440Z,6.57
2022-10-19T23:00:41.314Z,6.00
2022-10-19T23:03:08.175Z,6.00
2022-10-19T23:05:35.059Z,4.67
2022-10-19T23:08:01.927Z,5.00
2022-10-19T23:10:28.884Z,5.97
2022-10-19T23:12:55.681Z,6.20
2022-10-19T23:15:22.479Z,5.37
2022-10-19T23:17:49.316Z,8.37
2022-10-19T23:20:16.225Z,4.60
2022-10-19T23:22:43.091Z,6.27
2022-10-19T23:25:10.092Z,5.67
2022-10-19T23:27:37.319Z,5.23
2022-10-19T23:30:05.131Z,5.00
2022-10-19T23:32:32.165Z,9.50
2022-10-19T23:34:58.956Z,5.53
2022-10-19T23:37:25.768Z,9.73
2022-10-19T23:39:52.575Z,5.77
2022-10-19T23:42:19.415Z,4.80
2022-10-19T23:44:46.205Z,5.20
2022-10-19T23:47:13.016Z,5.07
2022-10-19T23:49:39.842Z,5.77
2022-10-19T23:52:06.883Z,5.33
2022-10-19T23:54:33.707Z,5.57
2022-10-19T23:57:00.504Z,4.43
2022-10-19T23:59:27.298Z,4.70
